Aérodrome :
LOGIN :

S'inscrire | Disclaimer

   EN    FR    IT 

 










Légende :    VFR   VFR Marginal   IFR   IFR Intensif   IFR Très Intensif
Visi : 
Plafond : 
>= 8 km
>= 3000ft
5 à 8 km
1000 à 3000 ft
1500m à 5 km
500 à 1000 ft
800 à 1500m
200 à 500 ft
< 800m
< 200 ft
Symboles :   Orages  Brouillard  Fortes neiges  Fortes précipitations  Vent > 20 kt
SIGMETs :   Divers  Orages  Givrage  Turbulence  Onde Orograph.  Cendres Volcan.







- Altitude de l'aérodrome : 2220 ft


LOXZ - Zeltweg AB

DERNIER METAR :
  • 261620Z 09004KT 060V120 12KM -SHRA FEW005ST SCT025SC BKN070SC 08/07 Q1018 RERA NOSIG

METARs EXPIRÉS :
  • 261550Z VRB03KT 7000 SHRA FEW005ST SCT020SC FEW020CB BKN035SC 08/06 Q1018 RETS BECMG NSW
  • 261520Z VRB02KT 7000 -TSRA FEW005ST SCT020SC FEW020CB BKN040SC 08/06 Q1018 RERA TEMPO SHRA
  • 261450Z VRB02KT 7000 SHRA FEW005ST SCT020SC BKN040SC 08/06 Q1017 TEMPO -SHRA
  • 261420Z VRB03KT 4000 SHRA FEW005ST SCT010ST BKN040SC 08/07 Q1017 BECMG -SHRA
  • 261350Z 08009KT 6000 TSRA FEW005ST SCT020SC FEW020CB BKN045SC 10/08 Q1015 TEMPO 4000

TAF TAF LOXZ
Valide du 26 à 15h jusqu'au 27 à 00h UTC


261415Z 2615/2624 VRB03KT 9999 -RA FEW020 BKN040
TEMPO 2615/2617 06012KT 4000 TSRA FEW003 SCT012 FEW025CB BKN030
BECMG 2618/2620 SCT050 SCT080
Pas de NOTAMs connus pour ce terrain.
1 SIGMET publié pour la FIR Wien (LOVV) :
 
Orages en lignes de grains
LOVV SIGMET 1 VALID 261451/261630 LOWW
LOVV WIEN FIR SQL TS OBS AT 1451Z WI N4640 E01230 - N4710 E01415 - N4655 E01450 - N4630 E01325 - N4640 E01230 TOP FL360 NC FCST AT 1630Z WI N4700 E01455 - N4635 E01515 - N4620 E01435 - N4630 E01305 - N4700 E01455=



MET'MAP, la Météo Aéronautique d'un coup d'oeil ! - Copyright ORBIFLY Décembre 2007 - Disclaimer

ORBIFLY MET'MAP TEAM :

Programmation & Développement : Alexandra Zaïnal
Conception & Développement : Baudouin d'Aumeries
Co-Programmation & Développement : Marc-Olivier Méhu
Soutien technique & logistique : Manuel Goepfert

Contact : metmap@orbifly.com




SOURCES & CREDITS :

   NOAA